METAR :   LFSB 260800Z 08003KT 020V130 9999 FEW040 BKN080 24/17 Q1020 NOSIG

TAF :   LFSB 260500Z 2606/2706 30004KT CAVOK BECMG 2610/2613 FEW050TCU SCT060 PROB30 TEMPO 2613/2620 36010KT SHRA BECMG 2620/2622 SCT045 SCT080